createdAt,value
2018-01-30T06:32:51.746Z,0
2018-01-30T06:33:23.767Z,0
2018-01-30T06:33:55.771Z,0
2018-01-30T06:34:27.744Z,0
2018-01-30T06:34:59.963Z,0
2018-01-30T06:35:31.985Z,0
2018-01-30T06:36:04.000Z,0
2018-01-30T06:36:36.006Z,0
2018-01-30T06:37:07.965Z,0
2018-01-30T06:37:39.984Z,0
2018-01-30T06:38:11.969Z,0
2018-01-30T06:38:43.986Z,0
2018-01-30T06:39:15.955Z,0
2018-01-30T06:39:47.958Z,0
2018-01-30T06:40:19.953Z,0
2018-01-30T06:40:52.548Z,0
2018-01-30T06:41:25.450Z,0
2018-01-30T06:41:58.079Z,0
2018-01-30T06:42:30.119Z,4
2018-01-30T06:43:02.221Z,4
2018-01-30T06:43:34.229Z,4
2018-01-30T06:44:06.753Z,4
2018-01-30T06:44:38.769Z,0
2018-01-30T06:45:10.770Z,0
2018-01-30T06:45:42.749Z,0
2018-01-30T06:46:14.738Z,4
2018-01-30T06:46:46.709Z,4
2018-01-30T06:47:18.673Z,4
2018-01-30T06:47:50.686Z,4
2018-01-30T06:48:22.659Z,4
2018-01-30T06:48:54.714Z,4
2018-01-30T06:49:26.738Z,4
2018-01-30T06:49:58.753Z,4
2018-01-30T06:50:30.777Z,4
2018-01-30T06:51:02.866Z,4
2018-01-30T06:51:34.886Z,8
2018-01-30T06:52:06.895Z,8
2018-01-30T06:52:39.546Z,8
2018-01-30T06:53:11.573Z,8
2018-01-30T06:53:43.597Z,8
2018-01-30T06:54:15.767Z,12
2018-01-30T06:54:47.744Z,12
2018-01-30T06:55:19.784Z,8
2018-01-30T06:55:51.779Z,12
2018-01-30T06:56:23.859Z,12
2018-01-30T06:56:55.905Z,16
2018-01-30T06:57:27.898Z,12
2018-01-30T06:57:59.913Z,12
2018-01-30T06:58:31.895Z,16
2018-01-30T06:59:03.867Z,16
2018-01-30T06:59:36.039Z,20
2018-01-30T07:00:08.775Z,20
2018-01-30T07:00:40.842Z,20
2018-01-30T07:01:12.882Z,24
2018-01-30T07:01:44.881Z,24
2018-01-30T07:02:16.946Z,28
2018-01-30T07:02:49.768Z,28
2018-01-30T07:03:22.351Z,28
2018-01-30T07:03:54.344Z,32
2018-01-30T07:04:26.418Z,32
2018-01-30T07:04:58.416Z,36
2018-01-30T07:05:31.458Z,36
2018-01-30T07:06:03.467Z,36
2018-01-30T07:06:35.508Z,40
2018-01-30T07:07:08.279Z,40
2018-01-30T07:07:41.193Z,40
2018-01-30T07:08:13.234Z,44
2018-01-30T07:08:45.159Z,44
2018-01-30T07:09:18.050Z,52
2018-01-30T07:09:50.054Z,52
2018-01-30T07:10:22.036Z,56
2018-01-30T07:10:54.857Z,60
2018-01-30T07:11:27.566Z,60
2018-01-30T07:11:59.570Z,64
2018-01-30T07:12:31.556Z,68
2018-01-30T07:13:03.553Z,68
2018-01-30T07:13:35.602Z,72
2018-01-30T07:14:07.633Z,76
2018-01-30T07:14:39.594Z,76
2018-01-30T07:15:11.613Z,72
2018-01-30T07:15:43.705Z,68
2018-01-30T07:16:16.661Z,68
2018-01-30T07:16:48.741Z,76
2018-01-30T07:17:20.717Z,80
2018-01-30T07:17:53.464Z,88
2018-01-30T07:18:25.464Z,96
2018-01-30T07:18:57.481Z,104
2018-01-30T07:19:29.465Z,108
2018-01-30T07:20:01.634Z,116
2018-01-30T07:20:33.603Z,120
2018-01-30T07:21:05.606Z,128
2018-01-30T07:21:37.615Z,124
2018-01-30T07:22:09.802Z,124
2018-01-30T07:22:41.828Z,128
2018-01-30T07:23:13.828Z,136
2018-01-30T07:23:45.994Z,144
2018-01-30T07:24:18.000Z,156
2018-01-30T07:24:50.874Z,156
2018-01-30T07:25:23.688Z,148
2018-01-30T07:25:55.690Z,140
2018-01-30T07:26:28.472Z,136
2018-01-30T07:27:00.494Z,144
2018-01-30T07:27:32.506Z,152
2018-01-30T07:28:04.608Z,164
2018-01-30T07:28:36.610Z,164
2018-01-30T07:29:08.669Z,172
2018-01-30T07:29:40.696Z,184
2018-01-30T07:30:13.702Z,192
2018-01-30T07:30:45.733Z,196
2018-01-30T07:31:18.271Z,212
2018-01-30T07:31:50.876Z,220
2018-01-30T07:32:22.897Z,228
2018-01-30T07:32:54.906Z,236
2018-01-30T07:33:26.922Z,244
2018-01-30T07:33:58.982Z,256
2018-01-30T07:34:31.973Z,260
2018-01-30T07:35:03.949Z,272
2018-01-30T07:35:35.981Z,280
2018-01-30T07:36:08.001Z,288
2018-01-30T07:36:40.121Z,296
2018-01-30T07:37:12.190Z,300
2018-01-30T07:37:44.188Z,308
2018-01-30T07:38:16.368Z,316
2018-01-30T07:38:48.399Z,320
2018-01-30T07:39:20.511Z,324
2018-01-30T07:39:52.481Z,328
2018-01-30T07:40:25.078Z,332
2018-01-30T07:40:57.219Z,336
2018-01-30T07:41:29.210Z,352
2018-01-30T07:42:01.772Z,360
2018-01-30T07:42:33.791Z,364
2018-01-30T07:43:05.765Z,368
2018-01-30T07:43:37.764Z,376
2018-01-30T07:44:09.757Z,376
2018-01-30T07:44:42.299Z,392
2018-01-30T07:45:14.289Z,408
2018-01-30T07:45:46.361Z,408
2018-01-30T07:46:18.354Z,372
2018-01-30T07:46:50.405Z,360
2018-01-30T07:47:22.385Z,352
2018-01-30T07:47:54.395Z,368
2018-01-30T07:48:26.424Z,368
2018-01-30T07:48:58.477Z,376
2018-01-30T07:49:30.614Z,388
2018-01-30T07:50:02.644Z,400
2018-01-30T07:50:34.659Z,416
2018-01-30T07:51:06.740Z,428
2018-01-30T07:51:38.850Z,448
2018-01-30T07:52:11.385Z,472
2018-01-30T07:52:43.434Z,500
2018-01-30T07:53:16.269Z,532
2018-01-30T07:53:48.313Z,544
2018-01-30T07:54:20.336Z,564
2018-01-30T07:54:52.531Z,604
2018-01-30T07:55:24.587Z,604
2018-01-30T07:55:56.639Z,596
2018-01-30T07:56:28.622Z,580
2018-01-30T07:57:00.817Z,584
2018-01-30T07:57:32.877Z,576
2018-01-30T07:58:04.862Z,572
2018-01-30T07:58:36.838Z,572
2018-01-30T07:59:08.795Z,568
2018-01-30T07:59:40.840Z,572
2018-01-30T08:00:12.926Z,568
2018-01-30T08:00:45.089Z,572
2018-01-30T08:01:18.043Z,584
2018-01-30T08:01:50.039Z,600
2018-01-30T08:02:22.171Z,624
2018-01-30T08:02:54.215Z,628
2018-01-30T08:03:26.246Z,632
2018-01-30T08:03:58.288Z,632
2018-01-30T08:04:31.004Z,636
2018-01-30T08:05:03.000Z,644
2018-01-30T08:05:34.982Z,652
2018-01-30T08:06:07.046Z,668
2018-01-30T08:06:39.245Z,684
2018-01-30T08:07:11.383Z,704
2018-01-30T08:07:43.507Z,728
2018-01-30T08:08:15.505Z,760
2018-01-30T08:08:47.582Z,800
2018-01-30T08:09:19.546Z,824
2018-01-30T08:09:52.292Z,840
2018-01-30T08:10:24.354Z,816
2018-01-30T08:10:56.349Z,800
2018-01-30T08:11:28.379Z,800
2018-01-30T08:12:00.481Z,808
2018-01-30T08:12:32.567Z,816
2018-01-30T08:13:04.534Z,812
2018-01-30T08:13:36.530Z,772
2018-01-30T08:14:08.634Z,728
2018-01-30T08:14:40.680Z,744
2018-01-30T08:15:12.663Z,864
2018-01-30T08:15:44.703Z,940
2018-01-30T08:16:16.749Z,952
2018-01-30T08:16:48.784Z,980
2018-01-30T08:17:20.836Z,976
2018-01-30T08:17:52.848Z,1012
2018-01-30T08:18:24.873Z,1028
2018-01-30T08:18:56.878Z,1060
2018-01-30T08:19:28.869Z,1080
2018-01-30T08:20:00.890Z,1140
2018-01-30T08:20:32.982Z,1188
2018-01-30T08:21:05.142Z,1288
2018-01-30T08:21:37.191Z,1376
2018-01-30T08:22:09.226Z,1444
2018-01-30T08:22:41.234Z,1460
2018-01-30T08:23:13.251Z,1452
2018-01-30T08:23:45.288Z,1468
2018-01-30T08:24:18.122Z,1480
2018-01-30T08:24:50.107Z,1484
2018-01-30T08:25:22.158Z,1372
2018-01-30T08:25:54.156Z,1548
2018-01-30T08:26:26.192Z,1484
2018-01-30T08:26:58.298Z,1164
2018-01-30T08:27:30.303Z,940
2018-01-30T08:28:02.246Z,1356
2018-01-30T08:28:34.274Z,1240
2018-01-30T08:29:06.295Z,1220
2018-01-30T08:29:38.321Z,1188
2018-01-30T08:30:10.436Z,1256
2018-01-30T08:30:42.485Z,996
2018-01-30T08:31:14.483Z,1228
2018-01-30T08:31:46.495Z,1288
2018-01-30T08:32:18.535Z,1492
2018-01-30T08:32:50.566Z,1472
2018-01-30T08:33:22.574Z,1468
2018-01-30T08:33:54.544Z,1404
2018-01-30T08:34:26.586Z,1412
2018-01-30T08:34:59.176Z,1500
2018-01-30T08:35:31.231Z,1564
2018-01-30T08:36:04.128Z,1592
2018-01-30T08:36:36.089Z,1620
2018-01-30T08:37:08.092Z,1644
2018-01-30T08:37:40.089Z,1648
2018-01-30T08:38:12.093Z,1720
2018-01-30T08:38:44.110Z,1776
2018-01-30T08:39:16.159Z,1748
2018-01-30T08:39:48.318Z,1736
2018-01-30T08:40:20.348Z,1748
2018-01-30T08:40:52.337Z,1500
2018-01-30T08:41:24.342Z,1860
2018-01-30T08:41:56.295Z,1752
2018-01-30T08:42:28.385Z,1836
2018-01-30T08:43:00.468Z,1812
2018-01-30T08:43:32.494Z,1712
2018-01-30T08:44:04.498Z,1252
2018-01-30T08:44:36.513Z,1804
2018-01-30T08:45:08.610Z,1856
2018-01-30T08:45:40.713Z,1856
2018-01-30T08:46:12.698Z,1640
2018-01-30T08:46:44.699Z,1572
2018-01-30T08:47:16.679Z,1236
2018-01-30T08:47:48.673Z,1204
2018-01-30T08:48:20.668Z,1268
2018-01-30T08:48:52.817Z,1224
2018-01-30T08:49:24.837Z,1276
2018-01-30T08:49:56.845Z,1300
2018-01-30T08:50:28.859Z,1376
2018-01-30T08:51:00.888Z,1376
2018-01-30T08:51:32.912Z,1436
2018-01-30T08:52:04.929Z,1652
2018-01-30T08:52:37.636Z,1460
2018-01-30T08:53:10.397Z,1572
2018-01-30T08:53:44.021Z,1528
2018-01-30T08:54:15.998Z,1528
2018-01-30T08:54:48.056Z,1736
2018-01-30T08:55:20.068Z,1392
2018-01-30T08:55:52.080Z,1416
2018-01-30T08:56:24.083Z,1388
2018-01-30T08:56:56.090Z,1332
2018-01-30T08:57:28.097Z,1288
2018-01-30T08:58:00.149Z,1268
2018-01-30T08:58:32.178Z,1244
2018-01-30T08:59:04.196Z,1312
2018-01-30T08:59:36.238Z,1804
2018-01-30T09:00:08.391Z,1400
2018-01-30T09:00:40.366Z,1444
2018-01-30T09:01:12.389Z,1452
2018-01-30T09:01:44.447Z,1348
2018-01-30T09:02:16.639Z,1752
2018-01-30T09:02:50.378Z,1336
2018-01-30T09:03:22.472Z,1336
2018-01-30T09:03:54.624Z,1440
2018-01-30T09:04:27.143Z,1324
2018-01-30T09:04:59.239Z,1380
2018-01-30T09:05:31.398Z,1596
2018-01-30T09:06:03.525Z,1932
2018-01-30T09:06:35.837Z,1540
2018-01-30T09:07:07.943Z,1680
2018-01-30T09:07:39.994Z,1848
2018-01-30T09:08:12.016Z,1668
2018-01-30T09:08:44.025Z,1488
2018-01-30T09:09:16.167Z,1680
2018-01-30T09:09:49.029Z,2164
2018-01-30T09:10:21.010Z,2188
2018-01-30T09:10:53.117Z,2012
2018-01-30T09:11:25.148Z,1268
2018-01-30T09:11:57.219Z,1320
2018-01-30T09:12:29.241Z,1488
2018-01-30T09:13:01.948Z,1448
2018-01-30T09:13:34.032Z,1344
2018-01-30T09:14:06.136Z,1608
2018-01-30T09:14:38.492Z,1428
2018-01-30T09:15:10.633Z,1564
2018-01-30T09:15:43.320Z,1564
2018-01-30T09:16:15.398Z,1672
2018-01-30T09:16:47.418Z,1724
2018-01-30T09:17:19.464Z,1600
2018-01-30T09:17:51.698Z,1716
2018-01-30T09:18:23.718Z,2644
2018-01-30T09:18:55.704Z,2156
2018-01-30T09:19:27.700Z,2348
2018-01-30T09:19:59.718Z,1860
2018-01-30T09:20:32.131Z,1708
2018-01-30T09:21:04.834Z,1624
2018-01-30T09:21:36.854Z,1396
2018-01-30T09:22:09.770Z,1532
2018-01-30T09:22:41.784Z,1764
2018-01-30T09:23:13.915Z,1860
2018-01-30T09:23:46.934Z,1788
2018-01-30T09:24:19.131Z,1700
2018-01-30T09:24:52.039Z,1860
2018-01-30T09:25:24.077Z,2008
2018-01-30T09:25:56.855Z,1992
2018-01-30T09:26:28.863Z,1960
2018-01-30T09:27:00.952Z,1724
2018-01-30T09:27:32.963Z,1608
2018-01-30T09:28:05.123Z,1444
2018-01-30T09:28:37.237Z,1360
2018-01-30T09:29:10.045Z,1380
2018-01-30T09:29:42.610Z,1524
2018-01-30T09:30:15.034Z,1536
2018-01-30T09:30:47.055Z,1376
2018-01-30T09:31:19.112Z,1432
2018-01-30T09:31:51.168Z,1404
2018-01-30T09:32:23.638Z,1288
2018-01-30T09:32:57.486Z,1252
2018-01-30T09:33:30.579Z,1372
2018-01-30T09:34:02.589Z,1544
2018-01-30T09:34:34.765Z,1520
2018-01-30T09:35:07.690Z,1360
2018-01-30T09:35:39.921Z,1324
2018-01-30T09:36:11.915Z,1440
2018-01-30T09:36:43.946Z,1552
2018-01-30T09:37:16.029Z,1716
2018-01-30T09:37:48.151Z,1652
2018-01-30T09:38:20.271Z,1600
2018-01-30T09:38:52.284Z,1472
2018-01-30T09:39:24.369Z,1360
2018-01-30T09:39:56.467Z,1508
2018-01-30T09:40:28.617Z,2244
2018-01-30T09:41:00.822Z,2352
2018-01-30T09:41:32.811Z,1636
2018-01-30T09:42:04.800Z,1464
2018-01-30T09:42:36.779Z,1332
2018-01-30T09:43:08.768Z,1408
2018-01-30T09:43:40.759Z,1532
2018-01-30T09:44:12.751Z,1616
2018-01-30T09:44:45.557Z,1584
2018-01-30T09:45:18.252Z,1524
2018-01-30T09:45:50.316Z,1400
2018-01-30T09:46:22.354Z,1420
2018-01-30T09:46:54.492Z,1520
2018-01-30T09:47:26.490Z,1672
2018-01-30T09:47:58.663Z,1856
2018-01-30T09:48:30.797Z,1692
2018-01-30T09:49:02.842Z,1348
2018-01-30T09:49:34.815Z,1152
2018-01-30T09:50:06.932Z,1020
2018-01-30T09:50:39.051Z,996
2018-01-30T09:51:11.122Z,1076
2018-01-30T09:51:43.156Z,1288
2018-01-30T09:52:15.168Z,1432
2018-01-30T09:52:47.204Z,1580
2018-01-30T09:53:19.638Z,1720
2018-01-30T09:53:52.991Z,1904
2018-01-30T09:54:25.064Z,2056
2018-01-30T09:54:57.218Z,2144
2018-01-30T09:55:29.220Z,2248
2018-01-30T09:56:01.267Z,2444
2018-01-30T09:56:33.401Z,2544
2018-01-30T09:57:06.301Z,2508
2018-01-30T09:57:38.408Z,2440
2018-01-30T09:58:10.544Z,2408
2018-01-30T09:58:42.609Z,2604
2018-01-30T09:59:14.623Z,2520
2018-01-30T09:59:46.680Z,2404
2018-01-30T10:00:18.675Z,2096
2018-01-30T10:00:50.659Z,1756
2018-01-30T10:01:22.661Z,1944
2018-01-30T10:01:54.719Z,2104
2018-01-30T10:02:26.794Z,2036
2018-01-30T10:02:59.729Z,2024
2018-01-30T10:03:31.898Z,1980
2018-01-30T10:04:04.025Z,1804
2018-01-30T10:04:36.753Z,1588
2018-01-30T10:05:09.753Z,1564
2018-01-30T10:05:41.919Z,1532
2018-01-30T10:06:13.950Z,1436
2018-01-30T10:06:46.068Z,1440
2018-01-30T10:07:18.057Z,1520
2018-01-30T10:07:50.157Z,1752
2018-01-30T10:08:22.311Z,1840
2018-01-30T10:08:54.372Z,1864
2018-01-30T10:09:26.446Z,1900
2018-01-30T10:09:58.476Z,2000
2018-01-30T10:10:30.534Z,2164
2018-01-30T10:11:03.401Z,2364
2018-01-30T10:11:36.071Z,2352
2018-01-30T10:12:08.157Z,2292
2018-01-30T10:12:40.215Z,2280
2018-01-30T10:13:12.248Z,2264
2018-01-30T10:13:44.236Z,2352
2018-01-30T10:14:16.250Z,2368
2018-01-30T10:14:48.288Z,2392
2018-01-30T10:15:20.285Z,2564
2018-01-30T10:15:52.331Z,2460
2018-01-30T10:16:24.348Z,2552
2018-01-30T10:16:56.354Z,2540
2018-01-30T10:17:28.427Z,2548
2018-01-30T10:18:00.523Z,3040
2018-01-30T10:18:32.670Z,2960
2018-01-30T10:19:04.694Z,3452
2018-01-30T10:19:36.728Z,2844
2018-01-30T10:20:08.858Z,2804
2018-01-30T10:20:40.829Z,2744
2018-01-30T10:21:12.838Z,2576
2018-01-30T10:21:45.008Z,2696
2018-01-30T10:22:17.583Z,2948
2018-01-30T10:22:49.621Z,2724
2018-01-30T10:23:21.614Z,2724
2018-01-30T10:23:53.636Z,2636
2018-01-30T10:24:25.716Z,2796
2018-01-30T10:24:57.743Z,2880
2018-01-30T10:25:29.795Z,2896
2018-01-30T10:26:01.775Z,2800
2018-01-30T10:26:33.815Z,2524
2018-01-30T10:27:05.869Z,2580
2018-01-30T10:27:37.903Z,2452
2018-01-30T10:28:09.898Z,2276
2018-01-30T10:28:42.061Z,2356
2018-01-30T10:29:14.070Z,2172
2018-01-30T10:29:46.192Z,2140
2018-01-30T10:30:18.222Z,2056
2018-01-30T10:30:50.266Z,1996
2018-01-30T10:31:22.320Z,2012
2018-01-30T10:31:54.319Z,1832
2018-01-30T10:32:27.228Z,1652
2018-01-30T10:32:59.205Z,1608
2018-01-30T10:33:31.163Z,1732
2018-01-30T10:34:03.180Z,1720
2018-01-30T10:34:35.168Z,1644
2018-01-30T10:35:07.170Z,1460
2018-01-30T10:35:39.150Z,1420
2018-01-30T10:36:11.210Z,1476
2018-01-30T10:36:43.195Z,1516
2018-01-30T10:37:15.189Z,1472
2018-01-30T10:37:47.200Z,1436
2018-01-30T10:38:19.173Z,1404
2018-01-30T10:38:51.172Z,1328
2018-01-30T10:39:23.218Z,1264
2018-01-30T10:39:55.235Z,1220
2018-01-30T10:40:27.339Z,1132
2018-01-30T10:40:59.332Z,1060
2018-01-30T10:41:31.326Z,984
2018-01-30T10:42:03.359Z,956
2018-01-30T10:42:35.367Z,1020
2018-01-30T10:43:07.864Z,1124
2018-01-30T10:43:39.895Z,1224
2018-01-30T10:44:11.909Z,1296
2018-01-30T10:44:44.522Z,1400
2018-01-30T10:45:16.561Z,1484
2018-01-30T10:45:48.502Z,1500
2018-01-30T10:46:20.504Z,1464
2018-01-30T10:46:52.552Z,1400
2018-01-30T10:47:24.574Z,1448
2018-01-30T10:47:56.616Z,1588
2018-01-30T10:48:28.633Z,1608
2018-01-30T10:49:00.613Z,1592
2018-01-30T10:49:32.655Z,1636
2018-01-30T10:50:04.748Z,1620
2018-01-30T10:50:36.718Z,1472
2018-01-30T10:51:08.761Z,1452
2018-01-30T10:51:40.866Z,1464
2018-01-30T10:52:12.863Z,1484
2018-01-30T10:52:44.838Z,1508
2018-01-30T10:53:16.868Z,1588
2018-01-30T10:53:48.870Z,1520
2018-01-30T10:54:20.893Z,1452
2018-01-30T10:54:53.382Z,1420
2018-01-30T10:55:25.898Z,1392
2018-01-30T10:55:57.941Z,1272
2018-01-30T10:56:30.592Z,1104
2018-01-30T10:57:02.632Z,1100
2018-01-30T10:57:34.653Z,984
2018-01-30T10:58:06.712Z,836
2018-01-30T10:58:38.748Z,788
2018-01-30T10:59:10.745Z,848
2018-01-30T10:59:42.758Z,1044
2018-01-30T11:00:14.771Z,1244
2018-01-30T11:00:46.782Z,1324
2018-01-30T11:01:18.808Z,1288
2018-01-30T11:01:50.824Z,1152
2018-01-30T11:02:25.789Z,1072
2018-01-30T11:02:57.745Z,1100
2018-01-30T11:03:29.734Z,1172
2018-01-30T11:04:01.720Z,1176
2018-01-30T11:04:33.700Z,1240
2018-01-30T11:05:05.727Z,1440
2018-01-30T11:05:37.802Z,1512
2018-01-30T11:06:09.830Z,1488
2018-01-30T11:06:41.829Z,1452
2018-01-30T11:07:13.825Z,1444
2018-01-30T11:07:46.011Z,1400
2018-01-30T11:08:18.015Z,1304
2018-01-30T11:08:50.004Z,1316
2018-01-30T11:09:22.004Z,1304
2018-01-30T11:09:53.975Z,1292
2018-01-30T11:10:26.014Z,1276
2018-01-30T11:10:58.024Z,1260
2018-01-30T11:11:30.017Z,1316
2018-01-30T11:12:02.055Z,1352
2018-01-30T11:12:34.062Z,1380
2018-01-30T11:13:06.071Z,1476
2018-01-30T11:13:38.013Z,1536
2018-01-30T11:14:09.990Z,1516
2018-01-30T11:14:42.097Z,1572
2018-01-30T11:15:14.094Z,1784
2018-01-30T11:15:46.108Z,1988
2018-01-30T11:16:18.135Z,2104
2018-01-30T11:16:50.229Z,2240
2018-01-30T11:17:22.247Z,2392
2018-01-30T11:17:54.243Z,2432
2018-01-30T11:18:26.259Z,2428
2018-01-30T11:18:58.231Z,2248
2018-01-30T11:19:30.223Z,2044
2018-01-30T11:20:02.231Z,1892
2018-01-30T11:20:34.843Z,1784
2018-01-30T11:21:06.894Z,1772
2018-01-30T11:21:38.933Z,1864
2018-01-30T11:22:11.657Z,1960
2018-01-30T11:22:43.677Z,2076
2018-01-30T11:23:15.711Z,2100
2018-01-30T11:23:47.682Z,2052
2018-01-30T11:24:20.398Z,1964
2018-01-30T11:24:52.435Z,1860
2018-01-30T11:25:24.432Z,1820
2018-01-30T11:25:57.384Z,1760
2018-01-30T11:26:29.394Z,1812
2018-01-30T11:27:01.393Z,1984
2018-01-30T11:27:33.431Z,1980
2018-01-30T11:28:05.418Z,1796
2018-01-30T11:28:37.453Z,1720
2018-01-30T11:29:10.282Z,1676
2018-01-30T11:29:42.269Z,1564
2018-01-30T11:30:14.341Z,1436
2018-01-30T11:30:46.323Z,1372
2018-01-30T11:31:18.363Z,1488
2018-01-30T11:31:50.437Z,1660
2018-01-30T11:32:22.431Z,1604
2018-01-30T11:32:54.448Z,1544
2018-01-30T11:33:26.485Z,1500
2018-01-30T11:33:58.516Z,1396
2018-01-30T11:34:30.550Z,1376
2018-01-30T11:35:02.553Z,1544
2018-01-30T11:35:34.575Z,1644
2018-01-30T11:36:06.562Z,1836
2018-01-30T11:36:38.591Z,2008
2018-01-30T11:37:10.580Z,2068
2018-01-30T11:37:42.605Z,2032
2018-01-30T11:38:14.605Z,1948
2018-01-30T11:38:46.723Z,1832
2018-01-30T11:39:18.722Z,1776
2018-01-30T11:39:50.721Z,1856
2018-01-30T11:40:22.716Z,2040
2018-01-30T11:40:54.710Z,2200
2018-01-30T11:41:27.221Z,2364
2018-01-30T11:41:59.252Z,2400
2018-01-30T11:42:31.297Z,2500
2018-01-30T11:43:04.200Z,2664
2018-01-30T11:43:36.325Z,2792
2018-01-30T11:44:08.339Z,2860
2018-01-30T11:44:40.356Z,2876
2018-01-30T11:45:13.183Z,2784
2018-01-30T11:45:45.177Z,2536
2018-01-30T11:46:18.012Z,2220
2018-01-30T11:46:50.032Z,2108
2018-01-30T11:47:21.993Z,2040
2018-01-30T11:47:54.050Z,2032
2018-01-30T11:48:26.049Z,1924
2018-01-30T11:48:58.063Z,1928
2018-01-30T11:49:30.046Z,2080
2018-01-30T11:50:02.090Z,2224
2018-01-30T11:50:34.114Z,2176
2018-01-30T11:51:07.125Z,2156
2018-01-30T11:51:39.174Z,2104
2018-01-30T11:52:11.207Z,2012
2018-01-30T11:52:43.285Z,1972
2018-01-30T11:53:15.838Z,2012
2018-01-30T11:53:47.859Z,2244
2018-01-30T11:54:21.029Z,2344
2018-01-30T11:54:53.048Z,2360
2018-01-30T11:55:25.033Z,2364
2018-01-30T11:55:57.084Z,2212
2018-01-30T11:56:29.110Z,2064
2018-01-30T11:57:01.829Z,1960
2018-01-30T11:57:33.756Z,1812
2018-01-30T11:58:05.774Z,1592
2018-01-30T11:58:37.783Z,1372
2018-01-30T11:59:09.783Z,1468
2018-01-30T11:59:42.741Z,1636
2018-01-30T12:00:14.749Z,1736
2018-01-30T12:00:46.697Z,2024
2018-01-30T12:01:18.695Z,2292
2018-01-30T12:01:50.672Z,2748
2018-01-30T12:02:22.656Z,2932
2018-01-30T12:02:54.697Z,2932
2018-01-30T12:03:26.702Z,2784
2018-01-30T12:03:58.688Z,2764
2018-01-30T12:04:30.719Z,2696
2018-01-30T12:05:02.710Z,2748
2018-01-30T12:05:35.414Z,3052
2018-01-30T12:06:07.454Z,3224
2018-01-30T12:06:40.910Z,3580
2018-01-30T12:07:12.932Z,4400
2018-01-30T12:07:44.963Z,3540
2018-01-30T12:08:17.890Z,3428
2018-01-30T12:08:49.886Z,4140
2018-01-30T12:09:21.842Z,5180
2018-01-30T12:09:53.825Z,5692
2018-01-30T12:10:25.845Z,6096
2018-01-30T12:10:57.806Z,4936
2018-01-30T12:11:29.764Z,4924
2018-01-30T12:12:01.787Z,6132
2018-01-30T12:12:33.761Z,6428
2018-01-30T12:13:05.768Z,6252
2018-01-30T12:13:38.416Z,6052
2018-01-30T12:14:10.400Z,5712
2018-01-30T12:14:43.331Z,4116
2018-01-30T12:15:15.469Z,4972
2018-01-30T12:15:47.475Z,5332
2018-01-30T12:16:20.413Z,5636
2018-01-30T12:16:52.461Z,6660
2018-01-30T12:17:24.648Z,6824
2018-01-30T12:17:56.692Z,5140
2018-01-30T12:18:28.643Z,7288
